createdAt,value
2018-04-13T00:01:38.780Z,97.70
2018-04-13T00:05:41.372Z,97.70
2018-04-13T00:09:44.059Z,97.30
2018-04-13T00:13:46.573Z,97.30
2018-04-13T00:17:49.412Z,98.30
2018-04-13T00:21:51.942Z,98.90
2018-04-13T00:25:54.491Z,99.30
2018-04-13T00:29:57.006Z,99.00
2018-04-13T00:33:59.546Z,98.30
2018-04-13T00:38:02.070Z,98.30
2018-04-13T00:42:05.398Z,98.90
2018-04-13T00:46:07.903Z,98.90
2018-04-13T00:50:11.223Z,98.90
2018-04-13T00:54:14.502Z,98.90
2018-04-13T00:58:17.047Z,98.90
2018-04-13T01:02:19.599Z,98.40
2018-04-13T01:06:22.211Z,98.60
2018-04-13T01:10:24.723Z,99.10
2018-04-13T01:14:27.280Z,99.60
2018-04-13T01:18:29.794Z,99.40
2018-04-13T01:22:32.348Z,99.00
2018-04-13T01:26:34.854Z,99.60
2018-04-13T01:30:41.138Z,99.70
2018-04-13T01:34:43.647Z,99.30
2018-04-13T01:38:46.190Z,99.50
2018-04-13T01:42:49.476Z,99.90
2018-04-13T01:46:55.900Z,99.90
2018-04-13T01:50:58.372Z,99.90
2018-04-13T01:55:00.941Z,99.90
2018-04-13T01:59:03.478Z,99.90
2018-04-13T02:03:06.014Z,99.70
2018-04-13T02:07:09.289Z,99.90
2018-04-13T02:11:11.919Z,99.90
2018-04-13T02:15:14.431Z,99.90
2018-04-13T02:19:16.979Z,99.90
2018-04-13T02:23:19.490Z,99.90
2018-04-13T02:27:22.031Z,99.90
2018-04-13T02:31:24.557Z,99.90
2018-04-13T02:35:27.179Z,99.90
2018-04-13T02:39:30.458Z,99.90
2018-04-13T02:43:33.186Z,99.90
2018-04-13T02:47:35.668Z,99.90
2018-04-13T02:51:38.520Z,99.90
2018-04-13T02:55:47.536Z,99.90
2018-04-13T02:59:50.093Z,99.90
2018-04-13T03:03:52.615Z,99.90
2018-04-13T03:07:55.158Z,99.90
2018-04-13T03:12:04.284Z,99.90
2018-04-13T03:16:06.854Z,99.90
2018-04-13T03:20:09.365Z,99.90
2018-04-13T03:24:11.906Z,99.40
2018-04-13T03:28:14.436Z,99.60
2018-04-13T03:32:16.978Z,99.90
2018-04-13T03:36:20.275Z,99.90
2018-04-13T03:40:23.199Z,99.90
2018-04-13T03:44:25.753Z,99.90
2018-04-13T03:48:29.041Z,99.90
2018-04-13T03:52:31.550Z,99.90
2018-04-13T03:56:34.118Z,99.80
2018-04-13T04:00:36.641Z,99.90
2018-04-13T04:04:39.279Z,99.90
2018-04-13T04:08:42.558Z,99.90
2018-04-13T04:12:45.191Z,99.90
2018-04-13T04:16:48.721Z,99.90
2018-04-13T04:21:02.943Z,99.90
2018-04-13T04:25:12.162Z,99.90
2018-04-13T04:29:14.718Z,99.90
2018-04-13T04:33:18.147Z,99.90
2018-04-13T04:37:20.691Z,99.90
2018-04-13T04:41:23.239Z,99.90
2018-04-13T04:45:26.079Z,99.90
2018-04-13T04:49:28.632Z,99.90
2018-04-13T04:53:31.178Z,99.90
2018-04-13T04:57:33.694Z,99.90
2018-04-13T05:01:36.623Z,99.90
2018-04-13T05:05:39.158Z,99.90
2018-04-13T05:09:41.898Z,99.90
2018-04-13T05:13:44.412Z,99.90
2018-04-13T05:17:46.959Z,99.90
2018-04-13T05:21:49.484Z,99.90
2018-04-13T05:25:52.066Z,99.90
2018-04-13T05:29:54.592Z,99.90
2018-04-13T05:33:57.134Z,99.90
2018-04-13T05:42:10.426Z,99.90
2018-04-13T05:50:21.606Z,99.90
2018-04-13T06:02:43.118Z,99.90
2018-04-13T06:06:45.966Z,99.60
2018-04-13T06:10:48.482Z,99.30
2018-04-13T06:14:51.026Z,98.90
2018-04-13T06:18:54.328Z,98.60
2018-04-13T06:22:56.871Z,98.60
2018-04-13T06:27:00.155Z,98.40
2018-04-13T06:31:02.708Z,98.40
2018-04-13T06:35:05.250Z,97.70
2018-04-13T06:39:07.796Z,97.60
2018-04-13T06:43:11.377Z,97.40
2018-04-13T06:47:13.939Z,97.40
2018-04-13T06:51:16.503Z,97.50
2018-04-13T06:55:19.151Z,97.50
2018-04-13T06:59:22.443Z,97.90
2018-04-13T07:03:25.219Z,97.90
2018-04-13T07:07:27.751Z,97.60
2018-04-13T07:11:31.258Z,97.60
2018-04-13T07:15:34.328Z,97.50
2018-04-13T07:28:09.206Z,97.20
2018-04-13T07:32:13.186Z,97.90
2018-04-13T07:40:25.283Z,98.10
2018-04-13T07:44:27.831Z,98.10
2018-04-13T07:48:30.342Z,98.00
2018-04-13T07:52:33.192Z,97.80
2018-04-13T07:56:36.418Z,97.50
2018-04-13T08:00:38.978Z,97.40
2018-04-13T08:04:41.519Z,97.50
2018-04-13T08:08:44.115Z,97.10
2018-04-13T08:12:47.595Z,97.20
2018-04-13T08:16:50.695Z,97.20
2018-04-13T08:25:04.627Z,97.20
2018-04-13T08:29:07.142Z,97.20
2018-04-13T08:33:10.455Z,97.20
2018-04-13T08:37:13.743Z,97.10
2018-04-13T08:41:16.292Z,97.10
2018-04-13T08:45:19.580Z,97.10
2018-04-13T08:49:22.145Z,97.10
2018-04-13T08:53:24.674Z,97.90
2018-04-13T08:57:27.531Z,98.30
2018-04-13T09:01:30.126Z,98.20
2018-04-13T09:05:35.335Z,97.90
2018-04-13T09:09:37.878Z,97.40
2018-04-13T09:13:40.443Z,97.40
2018-04-13T09:17:47.482Z,97.60
2018-04-13T09:21:50.039Z,97.40
2018-04-13T09:25:53.318Z,97.60
2018-04-13T09:29:55.874Z,97.50
2018-04-13T09:33:59.157Z,97.50
2018-04-13T09:38:01.731Z,97.50
2018-04-13T09:42:04.275Z,97.60
2018-04-13T09:46:06.828Z,97.50
2018-04-13T09:50:09.358Z,97.30
2018-04-13T09:54:11.902Z,97.40
2018-04-13T09:58:16.440Z,97.60
2018-04-13T10:02:21.089Z,97.90
2018-04-13T10:06:23.617Z,97.60
2018-04-13T10:10:26.183Z,97.40
2018-04-13T10:14:28.699Z,97.50
2018-04-13T10:18:31.263Z,97.50
2018-04-13T10:22:34.541Z,97.40
2018-04-13T10:26:37.670Z,97.40
2018-04-13T10:30:40.540Z,97.20
2018-04-13T10:34:43.143Z,97.00
2018-04-13T10:38:45.643Z,96.20
2018-04-13T10:42:48.194Z,96.00
2018-04-13T10:46:55.390Z,96.00
2018-04-13T10:50:58.027Z,96.20
2018-04-13T10:55:00.574Z,96.40
2018-04-13T10:59:03.211Z,96.30
2018-04-13T11:03:05.726Z,96.00
2018-04-13T11:07:08.266Z,95.70
2018-04-13T11:11:11.662Z,95.80
2018-04-13T11:15:14.581Z,95.80
2018-04-13T11:19:17.095Z,95.00
2018-04-13T11:23:20.502Z,94.20
2018-04-13T11:27:25.228Z,94.20
2018-04-13T11:31:27.776Z,93.80
2018-04-13T11:35:30.304Z,93.30
2018-04-13T11:39:33.699Z,92.40
2018-04-13T11:43:36.217Z,92.40
2018-04-13T11:47:38.907Z,92.00
2018-04-13T11:51:41.419Z,91.40
2018-04-13T11:55:43.970Z,90.90
2018-04-13T11:59:46.487Z,92.30
2018-04-13T12:03:49.039Z,92.90
2018-04-13T12:07:51.562Z,93.30
2018-04-13T12:11:54.106Z,93.30
2018-04-13T12:15:56.711Z,93.60
2018-04-13T12:19:59.271Z,93.90
2018-04-13T12:24:01.796Z,94.00
2018-04-13T12:28:04.450Z,93.30
2018-04-13T12:32:06.969Z,93.60
2018-04-13T12:36:09.518Z,92.50
2018-04-13T12:40:12.039Z,92.40
2018-04-13T12:44:14.597Z,92.10
2018-04-13T12:48:17.118Z,92.00
2018-04-13T12:52:19.770Z,91.40
2018-04-13T12:56:22.334Z,91.40
2018-04-13T13:00:25.931Z,92.00
2018-04-13T13:04:41.582Z,91.20
2018-04-13T13:08:45.045Z,91.20
2018-04-13T13:12:48.293Z,91.40
2018-04-13T13:16:57.531Z,91.40
2018-04-13T13:21:03.043Z,91.10
2018-04-13T13:25:05.595Z,90.70
2018-04-13T13:29:08.122Z,90.80
2018-04-13T13:33:15.696Z,91.20
2018-04-13T13:37:18.211Z,90.70
2018-04-13T13:41:21.516Z,90.60
2018-04-13T13:45:24.030Z,90.50
2018-04-13T13:49:26.564Z,89.70
2018-04-13T13:53:29.104Z,90.00
2018-04-13T13:57:32.556Z,90.50
2018-04-13T14:01:35.105Z,90.50
2018-04-13T14:05:37.647Z,90.80
2018-04-13T14:09:40.654Z,90.60
2018-04-13T14:13:48.505Z,90.60
2018-04-13T14:17:53.163Z,90.70
2018-04-13T14:21:55.726Z,91.10
2018-04-13T14:25:58.239Z,90.80
2018-04-13T14:30:00.776Z,91.00
2018-04-13T14:34:03.549Z,91.40
2018-04-13T14:38:06.191Z,91.40
2018-04-13T14:42:13.499Z,91.60
2018-04-13T14:46:16.066Z,91.30
2018-04-13T14:50:18.585Z,91.50
2018-04-13T14:54:21.139Z,91.80
2018-04-13T14:58:23.668Z,91.80
2018-04-13T15:02:27.008Z,93.00
2018-04-13T15:06:30.346Z,93.20
2018-04-13T15:10:32.895Z,93.20
2018-04-13T15:14:35.406Z,94.40
2018-04-13T15:18:38.046Z,95.30
2018-04-13T15:22:41.340Z,95.20
2018-04-13T15:26:43.879Z,95.20
2018-04-13T15:30:46.427Z,94.80
2018-04-13T15:34:50.671Z,95.30
2018-04-13T15:38:53.199Z,95.30
2018-04-13T15:42:56.699Z,96.50
2018-04-13T15:47:00.242Z,97.00
2018-04-13T15:51:02.786Z,97.10
2018-04-13T15:55:05.323Z,98.40
2018-04-13T15:59:07.873Z,98.70
2018-04-13T16:03:10.388Z,99.10
2018-04-13T16:07:12.934Z,98.80
2018-04-13T16:11:15.471Z,99.70
2018-04-13T16:15:19.079Z,99.40
2018-04-13T16:19:21.590Z,99.40
2018-04-13T16:23:24.146Z,99.90
2018-04-13T16:27:27.425Z,99.90
2018-04-13T16:31:29.982Z,99.90
2018-04-13T16:35:40.476Z,99.90
2018-04-13T16:39:43.872Z,99.90
2018-04-13T16:43:46.389Z,99.90
2018-04-13T16:47:48.935Z,99.90
2018-04-13T16:51:53.431Z,99.90
2018-04-13T16:55:59.770Z,99.90
2018-04-13T17:00:07.953Z,99.90
2018-04-13T17:04:10.883Z,99.90
2018-04-13T17:08:16.539Z,99.90
2018-04-13T17:12:24.051Z,99.90
2018-04-13T17:16:26.567Z,99.90
2018-04-13T17:20:29.200Z,99.90
2018-04-13T17:24:31.731Z,99.90
2018-04-13T17:28:42.585Z,99.90
2018-04-13T17:32:45.102Z,99.90
2018-04-13T17:36:47.637Z,99.90
2018-04-13T17:40:54.202Z,99.90
2018-04-13T17:49:24.995Z,99.90
2018-04-13T17:53:28.570Z,99.90
2018-04-13T17:57:33.871Z,99.90
2018-04-13T18:01:36.425Z,99.90
2018-04-13T18:05:38.955Z,99.90
2018-04-13T18:09:41.584Z,99.90
2018-04-13T18:13:44.143Z,99.90
2018-04-13T18:17:46.795Z,99.90
2018-04-13T18:21:49.555Z,99.90
2018-04-13T18:25:52.102Z,99.90
2018-04-13T18:29:55.390Z,99.90
2018-04-13T18:34:00.103Z,99.90
2018-04-13T18:38:02.644Z,99.90
2018-04-13T18:42:05.202Z,99.90
2018-04-13T18:46:08.529Z,99.90
2018-04-13T18:50:11.094Z,99.90
2018-04-13T18:54:14.608Z,99.90
2018-04-13T18:58:17.198Z,99.90
2018-04-13T19:02:20.736Z,99.90
2018-04-13T19:06:28.595Z,99.90
2018-04-13T19:10:31.119Z,99.90
2018-04-13T19:14:34.731Z,99.90
2018-04-13T19:18:37.246Z,99.90
2018-04-13T19:22:41.600Z,99.90
2018-04-13T19:26:45.986Z,99.90
2018-04-13T19:30:48.570Z,99.90
2018-04-13T19:34:54.289Z,99.90
2018-04-13T19:38:58.105Z,99.90
2018-04-13T19:43:00.671Z,99.90
2018-04-13T19:47:05.503Z,99.90
2018-04-13T19:51:08.038Z,99.90
2018-04-13T19:55:11.450Z,99.90
2018-04-13T19:59:13.979Z,99.90
2018-04-13T20:03:19.323Z,99.90
2018-04-13T20:07:21.878Z,99.90
2018-04-13T20:11:24.427Z,99.90
2018-04-13T20:15:26.968Z,99.90
2018-04-13T20:19:36.211Z,99.90
2018-04-13T20:23:38.908Z,99.90
2018-04-13T20:27:42.480Z,99.90
2018-04-13T20:31:44.996Z,99.90
2018-04-13T20:35:47.672Z,99.90
2018-04-13T20:39:52.950Z,99.90
2018-04-13T20:43:55.507Z,99.90
2018-04-13T20:47:58.042Z,99.90
2018-04-13T20:52:00.679Z,99.90
2018-04-13T20:56:03.243Z,99.90
2018-04-13T21:00:05.786Z,99.90
2018-04-13T21:04:08.318Z,99.90
2018-04-13T21:08:11.895Z,99.90
2018-04-13T21:12:18.771Z,99.90
2018-04-13T21:16:21.900Z,99.90
2018-04-13T21:20:27.682Z,99.90
2018-04-13T21:24:30.385Z,99.90
2018-04-13T21:28:32.946Z,99.90
2018-04-13T21:32:36.352Z,99.90
2018-04-13T21:36:39.849Z,99.90
2018-04-13T21:40:42.399Z,99.90
2018-04-13T21:44:44.956Z,99.90
2018-04-13T21:48:47.555Z,99.90
2018-04-13T21:52:50.081Z,99.90
2018-04-13T21:56:53.618Z,99.90
2018-04-13T22:00:56.143Z,99.90
2018-04-13T22:04:59.459Z,99.90
2018-04-13T22:09:01.972Z,99.90
2018-04-13T22:13:16.367Z,99.90
2018-04-13T22:17:18.910Z,99.90
2018-04-13T22:21:21.955Z,99.90
2018-04-13T22:25:24.545Z,99.90
2018-04-13T22:29:27.476Z,99.90
2018-04-13T22:33:29.995Z,99.90
2018-04-13T22:37:32.639Z,99.90
2018-04-13T22:41:35.171Z,99.90
2018-04-13T22:45:37.741Z,99.90
2018-04-13T22:49:41.262Z,99.90
2018-04-13T22:53:43.887Z,99.90
2018-04-13T22:57:46.420Z,99.90
2018-04-13T23:01:48.959Z,99.90
2018-04-13T23:05:51.475Z,99.90
2018-04-13T23:09:54.018Z,99.90
2018-04-13T23:13:56.532Z,99.90
2018-04-13T23:17:59.086Z,99.90
2018-04-13T23:22:01.603Z,99.90
2018-04-13T23:26:04.911Z,99.90
2018-04-13T23:30:07.432Z,99.90
2018-04-13T23:34:10.747Z,99.90
2018-04-13T23:38:13.267Z,99.90
2018-04-13T23:42:17.052Z,99.90
2018-04-13T23:46:19.570Z,99.90
2018-04-13T23:50:22.425Z,99.90
2018-04-13T23:54:24.935Z,99.90
2018-04-13T23:58:27.595Z,99.90
